Time;durP1;ratioP1;P1;durP2;ratioP2;P2;SDS_P1;SDS_P2;PMS_P1;PMS_P2;Temp;Humidity;BMP_temperature;BMP_pressure;BME280_temperature;BME280_humidity;BME280_pressure;Samples;Min_cycle;Max_cycle;Signal;HPM_P1;HPM_P2
2023/04/16 00:02:13;;;;;;;;;;;;;;;7.48;87.66;97736.84;5063128;28;19925;-56
2023/04/16 00:04:42;;;;;;;;;;;;;;;7.53;87.60;97735.97;5071543;28;19947;-55
2023/04/16 00:07:10;;;;;;;;;;;;;;;7.44;87.99;97732.31;5071716;28;19925;-55
2023/04/16 00:09:37;;;;;;;;;;;;;;;7.46;88.04;97740.94;5071940;28;19965;-56
2023/04/16 00:12:07;;;;;;;;;;;;;;;7.47;87.98;97737.94;5080139;28;19974;-56
2023/04/16 00:14:35;;;;;;;;;;;;;;;7.50;87.84;97736.53;5068462;28;20158;-56
2023/04/16 00:17:02;;;;;;;;;;;;;;;7.44;88.08;97738.50;5064832;28;19947;-56
2023/04/16 00:19:30;;;;;;;;;;;;;;;7.49;87.94;97741.13;5073502;28;19932;-57
2023/04/16 00:21:58;;;;;;;;;;;;;;;7.52;87.77;97745.16;5068664;28;19932;-56
2023/04/16 00:24:26;;;;;;;;;;;;;;;7.56;87.42;97746.16;5063715;28;19932;-55
2023/04/16 00:26:54;;;;;;;;;;;;;;;7.53;87.82;97752.19;5067779;28;19964;-56
2023/04/16 00:29:24;;;;;;;;;;;;;;;7.63;87.14;97741.19;5068525;28;19929;-57
2023/04/16 00:31:51;;;;;;;;;;;;;;;7.58;87.24;97742.06;5062928;28;20406;-56
2023/04/16 00:34:19;;;;;;;;;;;;;;;7.52;87.27;97740.56;5066187;28;20390;-56
2023/04/16 00:36:47;;;;;;;;;;;;;;;7.52;87.64;97735.16;5058346;28;19928;-55
2023/04/16 00:39:14;;;;;;;;;;;;;;;7.66;87.01;97739.78;5069371;28;20013;-56
2023/04/16 00:41:42;;;;;;;;;;;;;;;7.51;87.24;97740.84;5056119;28;20290;-59
2023/04/16 00:44:10;;;;;;;;;;;;;;;7.54;87.57;97741.06;5069999;28;20927;-56
2023/04/16 00:46:40;;;;;;;;;;;;;;;7.49;87.96;97740.34;5067543;28;19924;-56
2023/04/16 00:49:08;;;;;;;;;;;;;;;7.45;87.89;97737.41;5066170;28;19932;-55
2023/04/16 00:51:36;;;;;;;;;;;;;;;7.51;87.41;97740.84;5065550;28;19946;-58
2023/04/16 00:54:04;;;;;;;;;;;;;;;7.46;87.50;97740.94;5058336;28;19924;-55
2023/04/16 00:56:32;;;;;;;;;;;;;;;7.45;87.79;97742.81;5063509;28;19943;-57
2023/04/16 00:59:00;;;;;;;;;;;;;;;7.51;87.65;97740.84;5062930;28;19977;-56
2023/04/16 01:01:28;;;;;;;;;;;;;;;7.50;87.55;97736.53;5069036;28;19925;-55
2023/04/16 01:03:57;;;;;;;;;;;;;;;7.52;87.79;97745.16;5057997;28;19925;-56
2023/04/16 01:06:27;;;;;;;;;;;;;;;7.60;87.47;97741.78;5084236;28;19924;-55
2023/04/16 01:08:54;;;;;;;;;;;;;;;7.54;87.50;97740.25;5068949;28;19924;-55
2023/04/16 01:11:22;;;;;;;;;;;;;;;7.54;87.36;97742.97;5061706;28;19928;-55
2023/04/16 01:13:50;;;;;;;;;;;;;;;7.49;87.54;97743.03;5055563;28;20309;-56
2023/04/16 01:16:18;;;;;;;;;;;;;;;7.43;87.89;97745.03;5067901;28;20029;-58
2023/04/16 01:18:46;;;;;;;;;;;;;;;7.51;87.92;97746.25;5069709;28;19986;-57
2023/04/16 01:21:15;;;;;;;;;;;;;;;7.47;87.71;97740.66;5069114;28;19924;-55
2023/04/16 01:23:43;;;;;;;;;;;;;;;7.44;88.16;97749.31;5061105;28;19932;-56
2023/04/16 01:26:14;;;;;;;;;;;;;;;7.53;87.91;97746.78;5058624;28;20293;-56
2023/04/16 01:28:42;;;;;;;;;;;;;;;7.46;87.73;97741.75;5066129;28;19928;-56
2023/04/16 01:31:13;;;;;;;;;;;;;;;7.42;87.97;97745.31;5056051;28;19925;-57
2023/04/16 01:34:09;;;;;;;;;;;;;;;7.53;87.89;97739.47;5065514;28;19960;-56
2023/04/16 01:36:39;;;;;;;;;;;;;;;7.51;87.86;97743.53;5065993;28;19931;-59
2023/04/16 01:39:10;;;;;;;;;;;;;;;7.47;87.94;97745.25;5059730;28;19928;-55
2023/04/16 01:41:37;;;;;;;;;;;;;;;7.45;88.05;97742.81;5067154;28;19978;-56
2023/04/16 01:44:05;;;;;;;;;;;;;;;7.43;88.54;97734.22;5065937;28;19928;-57
2023/04/16 01:46:33;;;;;;;;;;;;;;;7.40;88.10;97734.78;5067861;28;19929;-56
2023/04/16 01:49:02;;;;;;;;;;;;;;;7.44;88.14;97748.53;5054795;28;20420;-58
2023/04/16 01:51:30;;;;;;;;;;;;;;;7.47;88.44;97742.53;5063687;28;19925;-55
2023/04/16 01:54:01;;;;;;;;;;;;;;;7.42;88.58;97746.13;5065693;28;19925;-55
2023/04/16 01:56:28;;;;;;;;;;;;;;;7.42;88.94;97746.13;5065854;28;19932;-56
2023/04/16 01:58:56;;;;;;;;;;;;;;;7.40;88.99;97745.59;5056903;28;19925;-57
2023/04/16 02:01:27;;;;;;;;;;;;;;;7.41;88.96;97743.72;5065989;28;20333;-61
2023/04/16 02:03:56;;;;;;;;;;;;;;;7.49;89.03;97751.94;5063587;28;19924;-58
2023/04/16 02:06:24;;;;;;;;;;;;;;;7.44;88.97;97738.50;5066935;28;20358;-56
2023/04/16 02:08:52;;;;;;;;;;;;;;;7.46;89.25;97738.25;5067261;28;20420;-59
2023/04/16 02:11:22;;;;;;;;;;;;;;;7.45;89.00;97740.13;5066777;28;19932;-56
2023/04/16 02:13:52;;;;;;;;;;;;;;;7.60;87.97;97747.97;5065910;28;19939;-62
2023/04/16 02:16:20;;;;;;;;;;;;;;;7.50;88.43;97742.75;5054722;28;19983;-56
2023/04/16 02:18:51;;;;;;;;;;;;;;;7.49;88.51;97746.53;5066097;28;19943;-61
2023/04/16 02:21:21;;;;;;;;;;;;;;;7.50;88.85;97747.34;5065206;28;19929;-56
2023/04/16 02:23:50;;;;;;;;;;;;;;;7.57;88.18;97748.59;5064529;28;19935;-56
2023/04/16 02:26:25;;;;;;;;;;;;;;;7.55;88.20;97749.97;5067314;28;20034;-56
2023/04/16 02:28:54;;;;;;;;;;;;;;;7.47;88.64;97753.34;5067963;28;19939;-56
2023/04/16 02:31:27;;;;;;;;;;;;;;;7.50;88.40;97750.03;5068636;28;19933;-56
2023/04/16 02:33:56;;;;;;;;;;;;;;;7.45;88.91;97756.34;5067750;28;19924;-57
2023/04/16 02:36:26;;;;;;;;;;;;;;;7.43;89.15;97757.75;5074417;28;19930;-57
2023/04/16 02:38:54;;;;;;;;;;;;;;;7.48;89.09;97755.75;5059347;28;19951;-56
2023/04/16 02:41:24;;;;;;;;;;;;;;;7.55;89.09;97758.88;5085279;28;19978;-55
2023/04/16 02:43:52;;;;;;;;;;;;;;;7.47;89.11;97759.56;5063709;28;19929;-60
2023/04/16 02:46:20;;;;;;;;;;;;;;;7.48;89.30;97746.84;5070028;28;19935;-56
2023/04/16 02:48:49;;;;;;;;;;;;;;;7.46;89.52;97757.97;5070839;28;19924;-56
2023/04/16 02:51:18;;;;;;;;;;;;;;;7.49;89.73;97770.06;5047232;28;19924;-57
2023/04/16 02:53:46;;;;;;;;;;;;;;;7.53;89.80;97768.41;5068979;28;19928;-56
2023/04/16 02:56:14;;;;;;;;;;;;;;;7.54;89.83;97761.88;5064601;28;19954;-56
2023/04/16 02:58:43;;;;;;;;;;;;;;;7.60;89.75;97758.00;5063361;28;19924;-56
2023/04/16 03:01:11;;;;;;;;;;;;;;;7.57;89.28;97762.09;5073978;28;20278;-58
2023/04/16 03:03:39;;;;;;;;;;;;;;;7.59;89.03;97765.31;5066703;28;19924;-56
2023/04/16 03:06:08;;;;;;;;;;;;;;;7.57;88.88;97759.41;5071557;28;19932;-57
2023/04/16 03:08:36;;;;;;;;;;;;;;;7.57;88.99;97755.91;5063365;28;19939;-56
2023/04/16 03:11:03;;;;;;;;;;;;;;;7.48;89.24;97765.78;5071003;28;19971;-56
2023/04/16 03:13:31;;;;;;;;;;;;;;;7.48;89.40;97763.88;5041488;28;19935;-56
2023/04/16 03:16:00;;;;;;;;;;;;;;;7.51;89.70;97763.28;5071135;28;19932;-56
2023/04/16 03:18:28;;;;;;;;;;;;;;;7.54;89.78;97757.28;5068364;28;20320;-56
2023/04/16 03:20:56;;;;;;;;;;;;;;;7.55;89.86;97768.88;5055931;28;20278;-56
2023/04/16 03:23:24;;;;;;;;;;;;;;;7.57;89.84;97764.00;5069765;28;19925;-56
2023/04/16 03:25:51;;;;;;;;;;;;;;;7.57;89.79;97772.13;5062395;28;19925;-63
2023/04/16 03:28:19;;;;;;;;;;;;;;;7.56;89.88;97771.31;5069757;28;20355;-57
2023/04/16 03:30:51;;;;;;;;;;;;;;;7.57;89.88;97774.81;5068984;28;20370;-56
2023/04/16 03:33:21;;;;;;;;;;;;;;;7.60;89.74;97776.91;5085879;28;19928;-56
2023/04/16 03:35:56;;;;;;;;;;;;;;;7.62;89.81;97777.44;5068020;28;19929;-56
2023/04/16 03:38:27;;;;;;;;;;;;;;;7.61;89.67;97773.91;5065895;28;19924;-56
2023/04/16 03:40:57;;;;;;;;;;;;;;;7.58;89.73;97779.13;5065336;28;19954;-56
2023/04/16 03:43:26;;;;;;;;;;;;;;;7.60;89.73;97785.84;5069796;28;20510;-56
2023/04/16 03:45:54;;;;;;;;;;;;;;;7.62;89.95;97782.84;5060369;28;19924;-56
2023/04/16 03:48:25;;;;;;;;;;;;;;;7.67;89.44;97785.47;5068133;28;19928;-56
2023/04/16 03:50:53;;;;;;;;;;;;;;;7.61;89.34;97781.22;5067947;28;20355;-58
2023/04/16 03:53:21;;;;;;;;;;;;;;;7.56;89.33;97779.44;5066373;28;19933;-57
2023/04/16 03:55:49;;;;;;;;;;;;;;;7.62;89.70;97793.66;5062731;28;19932;-58
2023/04/16 03:58:18;;;;;;;;;;;;;;;7.72;88.99;97776.44;5064108;28;19974;-56
2023/04/16 04:00:47;;;;;;;;;;;;;;;7.65;89.04;97781.44;5062242;28;19929;-56
2023/04/16 04:03:17;;;;;;;;;;;;;;;7.70;88.70;97784.06;5066678;28;19924;-56
2023/04/16 04:05:48;;;;;;;;;;;;;;;7.63;89.24;97789.06;5057191;28;19925;-56
2023/04/16 04:08:25;;;;;;;;;;;;;;;7.63;89.42;97784.47;5066200;28;19982;-56
2023/04/16 04:10:53;;;;;;;;;;;;;;;7.61;89.79;97792.03;5065937;28;19974;-57
2023/04/16 04:13:25;;;;;;;;;;;;;;;7.70;89.71;97797.59;5072588;28;19928;-57
2023/04/16 04:15:58;;;;;;;;;;;;;;;7.63;89.37;97800.69;5080352;28;19924;-56
2023/04/16 04:18:43;;;;;;;;;;;;;;;7.60;89.82;97798.56;5083451;28;19924;-56
2023/04/16 04:21:12;;;;;;;;;;;;;;;7.63;89.56;97803.38;5071250;28;20357;-57
2023/04/16 04:23:41;;;;;;;;;;;;;;;7.63;89.63;97800.69;5074552;28;19924;-56
2023/04/16 04:26:09;;;;;;;;;;;;;;;7.64;89.69;97807.69;5070124;28;19928;-56
2023/04/16 04:28:37;;;;;;;;;;;;;;;7.74;89.40;97806.72;5069667;28;20358;-56
2023/04/16 04:31:05;;;;;;;;;;;;;;;7.72;88.98;97807.00;5085711;28;19939;-56
2023/04/16 04:33:32;;;;;;;;;;;;;;;7.79;88.57;97809.34;5073775;28;19990;-56
2023/04/16 04:36:01;;;;;;;;;;;;;;;7.78;88.63;97811.25;5074252;28;19928;-58
2023/04/16 04:38:30;;;;;;;;;;;;;;;7.80;88.50;97806.34;5068062;28;19932;-56
2023/04/16 04:40:58;;;;;;;;;;;;;;;7.87;88.42;97806.75;5089402;28;19928;-56
2023/04/16 04:43:31;;;;;;;;;;;;;;;7.97;87.47;97811.19;5062355;28;19924;-60
2023/04/16 04:45:59;;;;;;;;;;;;;;;8.00;87.83;97816.03;5071557;28;19954;-56
2023/04/16 04:48:30;;;;;;;;;;;;;;;8.00;87.67;97816.03;5064002;28;19930;-58
2023/04/16 04:50:58;;;;;;;;;;;;;;;8.05;87.38;97820.56;5066520;28;19924;-56
2023/04/16 04:53:26;;;;;;;;;;;;;;;8.06;86.95;97825.66;5059257;28;19925;-56
2023/04/16 04:55:56;;;;;;;;;;;;;;;8.10;86.55;97825.88;5062547;28;19932;-57
2023/04/16 04:58:28;;;;;;;;;;;;;;;8.18;86.29;97817.06;5063146;28;19931;-56
2023/04/16 05:00:57;;;;;;;;;;;;;;;8.19;86.37;97826.78;5064110;28;20854;-56
2023/04/16 05:03:25;;;;;;;;;;;;;;;8.18;86.19;97829.78;5063941;28;19925;-56
2023/04/16 05:05:53;;;;;;;;;;;;;;;8.19;86.26;97834.91;5055154;28;20449;-58
2023/04/16 05:08:20;;;;;;;;;;;;;;;8.22;86.28;97828.91;5075386;28;20438;-56
2023/04/16 05:10:48;;;;;;;;;;;;;;;8.46;85.61;97833.38;5064271;28;19925;-57
2023/04/16 05:13:17;;;;;;;;;;;;;;;8.38;85.05;97841.09;5061078;28;19932;-56
2023/04/16 05:15:45;;;;;;;;;;;;;;;8.32;85.00;97844.97;5063689;28;19968;-56
2023/04/16 05:18:13;;;;;;;;;;;;;;;8.27;85.74;97836.13;5061541;28;19924;-56
2023/04/16 05:20:41;;;;;;;;;;;;;;;8.32;85.80;97846.88;5067448;28;19925;-56
2023/04/16 05:23:09;;;;;;;;;;;;;;;8.37;85.52;97844.91;5056554;28;19924;-56
2023/04/16 05:25:36;;;;;;;;;;;;;;;8.38;85.39;97849.22;5056714;28;19932;-58
2023/04/16 05:28:04;;;;;;;;;;;;;;;8.45;85.14;97850.72;5066170;28;19940;-58
2023/04/16 05:30:33;;;;;;;;;;;;;;;8.42;85.07;97849.44;5068609;28;19924;-57
2023/04/16 05:33:02;;;;;;;;;;;;;;;8.43;85.41;97851.03;5055634;28;19930;-56
2023/04/16 05:35:30;;;;;;;;;;;;;;;8.58;85.24;97858.06;5061998;28;19947;-56
2023/04/16 05:37:58;;;;;;;;;;;;;;;8.60;84.78;97858.56;5059080;28;20389;-56
2023/04/16 05:40:25;;;;;;;;;;;;;;;8.64;84.81;97863.09;5066021;28;20305;-55
2023/04/16 05:42:53;;;;;;;;;;;;;;;8.71;84.25;97857.28;5066723;28;19924;-55
2023/04/16 05:45:21;;;;;;;;;;;;;;;8.78;83.67;97865.78;5063710;28;19932;-56
2023/04/16 05:47:51;;;;;;;;;;;;;;;8.89;83.14;97866.41;5061573;28;19929;-55
2023/04/16 05:50:19;;;;;;;;;;;;;;;9.16;81.23;97866.41;5059203;28;19924;-55
2023/04/16 05:52:47;;;;;;;;;;;;;;;9.23;80.49;97868.69;5062640;28;20429;-55
2023/04/16 05:55:15;;;;;;;;;;;;;;;9.02;81.50;97875.66;5069056;28;19939;-55
2023/04/16 05:57:42;;;;;;;;;;;;;;;8.99;81.98;97873.53;5071567;28;19925;-56
2023/04/16 06:00:11;;;;;;;;;;;;;;;8.92;82.30;97879.34;5068695;28;19925;-55
2023/04/16 06:02:38;;;;;;;;;;;;;;;8.87;82.29;97877.53;5068610;28;19997;-55
2023/04/16 06:05:08;;;;;;;;;;;;;;;8.92;82.43;97882.84;5071260;28;19929;-56
2023/04/16 06:07:36;;;;;;;;;;;;;;;9.06;81.67;97887.50;5064889;28;19925;-55
2023/04/16 06:10:04;;;;;;;;;;;;;;;9.05;81.72;97883.16;5072041;28;19924;-55
2023/04/16 06:12:31;;;;;;;;;;;;;;;9.18;81.47;97887.78;5061051;28;19992;-57
2023/04/16 06:15:00;;;;;;;;;;;;;;;9.27;80.88;97891.41;5073005;28;20008;-56
2023/04/16 06:17:27;;;;;;;;;;;;;;;9.15;81.06;97886.47;5068490;28;19925;-55
2023/04/16 06:19:55;;;;;;;;;;;;;;;9.11;81.40;97892.81;5071423;28;20003;-55
2023/04/16 06:22:25;;;;;;;;;;;;;;;9.06;81.86;97892.91;5084448;28;20388;-55
2023/04/16 06:24:52;;;;;;;;;;;;;;;9.06;81.98;97898.34;5073471;28;19924;-59
2023/04/16 06:27:20;;;;;;;;;;;;;;;9.06;82.18;97893.72;5070578;28;19940;-55
2023/04/16 06:29:48;;;;;;;;;;;;;;;9.36;81.05;97896.88;5068601;28;19929;-57
2023/04/16 06:32:16;;;;;;;;;;;;;;;9.25;81.36;97890.06;5075365;28;19928;-55
2023/04/16 06:34:44;;;;;;;;;;;;;;;9.27;81.76;97899.53;5078215;28;19924;-56
2023/04/16 06:37:12;;;;;;;;;;;;;;;9.45;80.76;97906.72;5067703;28;19932;-55
2023/04/16 06:39:41;;;;;;;;;;;;;;;9.52;79.83;97903.59;5067926;28;19924;-56
2023/04/16 06:42:09;;;;;;;;;;;;;;;9.49;80.04;97906.13;5070494;28;19931;-56
2023/04/16 06:44:37;;;;;;;;;;;;;;;9.43;80.74;97911.66;5063156;28;19932;-61
2023/04/16 06:47:05;;;;;;;;;;;;;;;9.51;80.00;97917.47;5067299;28;20301;-56
2023/04/16 06:49:32;;;;;;;;;;;;;;;9.55;79.29;97919.25;5061153;28;19924;-56
2023/04/16 06:52:00;;;;;;;;;;;;;;;9.47;79.67;97916.47;5059666;28;19931;-56
2023/04/16 06:54:30;;;;;;;;;;;;;;;9.41;80.05;97918.47;5067642;28;19929;-56
2023/04/16 06:56:59;;;;;;;;;;;;;;;9.40;80.58;97923.09;5068284;28;19925;-56
2023/04/16 06:59:26;;;;;;;;;;;;;;;9.36;80.51;97921.28;5065585;28;19972;-55
2023/04/16 07:01:54;;;;;;;;;;;;;;;9.43;80.95;97924.41;5065069;28;19932;-55
2023/04/16 07:04:23;;;;;;;;;;;;;;;9.62;79.45;97924.28;5061028;28;19933;-56
2023/04/16 07:06:51;;;;;;;;;;;;;;;9.53;79.85;97931.50;5060540;28;20286;-56
2023/04/16 07:09:19;;;;;;;;;;;;;;;9.54;79.33;97925.81;5065482;28;19924;-55
2023/04/16 07:11:47;;;;;;;;;;;;;;;9.57;79.45;97927.09;5066498;28;20270;-60
2023/04/16 07:14:16;;;;;;;;;;;;;;;9.53;79.60;97937.72;5062791;28;19925;-59
2023/04/16 07:16:44;;;;;;;;;;;;;;;9.54;79.45;97928.50;5069376;28;19925;-56
2023/04/16 07:19:11;;;;;;;;;;;;;;;9.51;78.93;97928.31;5064449;28;19925;-55
2023/04/16 07:21:42;;;;;;;;;;;;;;;9.53;79.46;97934.22;5079560;28;19924;-56
2023/04/16 07:24:10;;;;;;;;;;;;;;;9.61;77.99;97938.94;5060548;28;19924;-55
2023/04/16 07:26:38;;;;;;;;;;;;;;;9.56;77.71;97930.91;5078590;28;20358;-55
2023/04/16 07:29:09;;;;;;;;;;;;;;;9.49;78.13;97944.09;5075284;28;19978;-56
2023/04/16 07:31:39;;;;;;;;;;;;;;;9.60;77.48;97937.34;5069243;28;19932;-56
2023/04/16 07:34:07;;;;;;;;;;;;;;;9.56;77.67;97937.13;5069208;28;19952;-55
2023/04/16 07:36:35;;;;;;;;;;;;;;;9.61;77.76;97944.38;5052839;28;19925;-56
2023/04/16 07:39:04;;;;;;;;;;;;;;;9.70;76.99;97945.25;5066712;28;19924;-58
2023/04/16 07:41:31;;;;;;;;;;;;;;;9.76;77.16;97943.25;5065354;28;20289;-56
2023/04/16 07:44:00;;;;;;;;;;;;;;;9.79;76.98;97945.31;5070006;28;19948;-56
2023/04/16 07:46:28;;;;;;;;;;;;;;;9.87;77.18;97942.72;5059794;28;19932;-56
2023/04/16 07:49:07;;;;;;;;;;;;;;;9.94;77.70;97948.50;5067523;28;19960;-53
2023/04/16 07:51:35;;;;;;;;;;;;;;;10.02;77.72;97949.69;5058519;28;19967;-54
2023/04/16 07:54:03;;;;;;;;;;;;;;;10.27;75.52;97940.16;5076197;28;19924;-53
2023/04/16 07:56:31;;;;;;;;;;;;;;;10.29;74.96;97940.69;5068899;28;19924;-56
2023/04/16 07:58:59;;;;;;;;;;;;;;;10.34;75.10;97940.56;5063248;28;19924;-55
2023/04/16 08:01:34;;;;;;;;;;;;;;;10.40;75.28;97939.31;5056144;28;19974;-54
2023/04/16 08:04:02;;;;;;;;;;;;;;;10.42;75.80;97947.16;5054451;28;19925;-55
2023/04/16 08:06:31;;;;;;;;;;;;;;;10.44;76.31;97943.03;5065278;28;19924;-56
2023/04/16 08:08:59;;;;;;;;;;;;;;;10.61;75.15;97949.69;5070160;28;19928;-56
2023/04/16 08:11:27;;;;;;;;;;;;;;;10.74;75.13;97952.31;5065165;28;19925;-57
2023/04/16 08:13:55;;;;;;;;;;;;;;;10.79;74.84;97956.81;5066554;28;20271;-55
2023/04/16 08:16:23;;;;;;;;;;;;;;;10.83;73.97;97955.09;5058695;28;20039;-55
2023/04/16 08:18:51;;;;;;;;;;;;;;;10.88;74.11;97960.38;5059298;28;19967;-56
2023/04/16 08:21:19;;;;;;;;;;;;;;;11.01;73.19;97964.13;5052431;28;19928;-56
2023/04/16 08:23:48;;;;;;;;;;;;;;;11.04;71.82;97968.16;5062776;28;19925;-57
2023/04/16 08:26:16;;;;;;;;;;;;;;;11.02;72.19;97974.69;5054312;28;19928;-55
2023/04/16 08:28:44;;;;;;;;;;;;;;;11.06;72.71;97971.34;5066593;28;19924;-55
2023/04/16 08:31:12;;;;;;;;;;;;;;;11.08;73.38;97974.53;5058388;28;21740;-56
2023/04/16 08:33:40;;;;;;;;;;;;;;;11.07;73.49;97972.94;5073733;28;20386;-55
2023/04/16 08:36:08;;;;;;;;;;;;;;;11.08;72.74;97977.25;5054686;28;20404;-57
2023/04/16 08:38:36;;;;;;;;;;;;;;;11.02;71.39;97988.28;5055718;28;19929;-56
2023/04/16 08:41:06;;;;;;;;;;;;;;;11.18;70.99;97979.72;5051412;28;19933;-55
2023/04/16 08:43:34;;;;;;;;;;;;;;;11.15;71.94;97986.59;5066179;28;19932;-56
2023/04/16 08:46:02;;;;;;;;;;;;;;;11.17;72.44;97988.97;5064485;28;19925;-54
2023/04/16 08:48:30;;;;;;;;;;;;;;;11.14;72.99;97984.19;5052353;28;19925;-57
2023/04/16 08:51:01;;;;;;;;;;;;;;;11.10;72.56;97989.44;5055081;28;19924;-56
2023/04/16 08:53:30;;;;;;;;;;;;;;;10.99;72.03;97988.91;5057094;28;19947;-56
2023/04/16 08:55:58;;;;;;;;;;;;;;;10.90;69.26;97993.47;5054418;28;19931;-55
2023/04/16 08:58:29;;;;;;;;;;;;;;;10.86;69.93;97995.22;5062913;28;19924;-56
2023/04/16 09:00:57;;;;;;;;;;;;;;;10.91;71.02;97999.72;5054933;28;19929;-55
2023/04/16 09:03:25;;;;;;;;;;;;;;;10.98;71.92;98003.63;5052195;28;19936;-55
2023/04/16 09:05:54;;;;;;;;;;;;;;;11.10;70.82;97999.53;5061310;28;19975;-55
2023/04/16 09:08:24;;;;;;;;;;;;;;;11.10;70.28;98005.75;5065006;28;19932;-55
2023/04/16 09:10:52;;;;;;;;;;;;;;;11.22;69.99;97997.81;5068083;28;19925;-59
2023/04/16 09:13:21;;;;;;;;;;;;;;;11.48;68.34;98010.72;5066900;28;19925;-55
2023/04/16 09:15:52;;;;;;;;;;;;;;;11.51;67.35;98012.81;5070444;28;19964;-56
2023/04/16 09:18:20;;;;;;;;;;;;;;;11.48;67.27;98011.50;5083839;28;19927;-57
2023/04/16 09:20:48;;;;;;;;;;;;;;;11.60;67.32;98012.84;5082665;28;19928;-56
2023/04/16 09:23:16;;;;;;;;;;;;;;;11.61;67.06;98011.72;5081390;28;19923;-56
2023/04/16 09:25:43;;;;;;;;;;;;;;;11.62;67.28;98013.34;5075135;28;19925;-54
2023/04/16 09:28:11;;;;;;;;;;;;;;;11.48;66.14;98022.41;5081683;28;19971;-55
2023/04/16 09:30:39;;;;;;;;;;;;;;;11.53;66.01;98018.75;5087828;28;19924;-56
2023/04/16 09:33:20;;;;;;;;;;;;;;;11.47;67.00;98020.81;5100333;28;19931;-55
2023/04/16 09:35:49;;;;;;;;;;;;;;;11.48;67.36;98019.69;5094022;28;20014;-55
2023/04/16 09:38:17;;;;;;;;;;;;;;;11.52;67.01;98022.59;5079916;28;19932;-55
2023/04/16 09:40:46;;;;;;;;;;;;;;;11.50;67.77;98025.63;5101890;28;19924;-53
2023/04/16 09:43:15;;;;;;;;;;;;;;;11.45;67.23;98031.22;5067828;28;19931;-53
2023/04/16 09:45:49;;;;;;;;;;;;;;;11.40;66.51;98031.34;5059241;28;20274;-53
2023/04/16 09:48:22;;;;;;;;;;;;;;;11.39;68.10;98029.72;5076586;28;20316;-53
2023/04/16 09:50:51;;;;;;;;;;;;;;;11.42;68.32;98034.53;5082723;28;19925;-54
2023/04/16 09:53:23;;;;;;;;;;;;;;;11.47;68.10;98036.31;5090116;28;20277;-54
2023/04/16 09:55:52;;;;;;;;;;;;;;;11.53;68.57;98038.59;5081526;28;19928;-54
2023/04/16 09:58:19;;;;;;;;;;;;;;;11.55;68.55;98033.63;5074122;28;19935;-54
2023/04/16 10:00:48;;;;;;;;;;;;;;;11.55;68.51;98039.06;5095959;28;20007;-54
2023/04/16 10:03:16;;;;;;;;;;;;;;;11.49;67.63;98042.25;5085286;28;19931;-54
2023/04/16 10:05:45;;;;;;;;;;;;;;;11.53;65.64;98045.94;5087918;28;19928;-53
2023/04/16 10:08:14;;;;;;;;;;;;;;;11.37;64.68;98048.28;5090842;28;19924;-54
2023/04/16 10:10:42;;;;;;;;;;;;;;;11.27;65.08;98052.06;5094362;28;19924;-55
2023/04/16 10:13:11;;;;;;;;;;;;;;;11.17;65.78;98056.97;5090300;28;19928;-54
2023/04/16 10:15:39;;;;;;;;;;;;;;;11.15;67.80;98053.78;5084313;28;19924;-55
2023/04/16 10:18:07;;;;;;;;;;;;;;;11.05;67.41;98056.75;5087786;28;19955;-54
2023/04/16 10:20:35;;;;;;;;;;;;;;;11.08;67.75;98061.53;5094920;28;19977;-54
2023/04/16 10:23:04;;;;;;;;;;;;;;;11.09;68.45;98063.16;5082188;28;19924;-53
2023/04/16 10:25:32;;;;;;;;;;;;;;;11.04;68.17;98068.75;5083691;28;19931;-54
2023/04/16 10:28:00;;;;;;;;;;;;;;;11.05;68.81;98064.91;5093008;28;19924;-54
2023/04/16 10:30:28;;;;;;;;;;;;;;;11.05;69.40;98067.63;5094193;28;19980;-54
2023/04/16 10:32:58;;;;;;;;;;;;;;;11.12;69.05;98060.63;5105524;28;19977;-54
2023/04/16 10:35:27;;;;;;;;;;;;;;;11.06;68.54;98069.22;5084944;28;20010;-54
2023/04/16 10:37:56;;;;;;;;;;;;;;;11.12;68.28;98065.25;5078268;28;19933;-54
2023/04/16 10:40:26;;;;;;;;;;;;;;;11.07;69.16;98070.81;5082014;28;20010;-54
2023/04/16 10:42:57;;;;;;;;;;;;;;;11.05;69.58;98068.41;5080305;28;19924;-54
2023/04/16 10:45:32;;;;;;;;;;;;;;;11.08;70.57;98067.81;5069740;28;19925;-57
2023/04/16 10:48:00;;;;;;;;;;;;;;;11.13;70.34;98075.00;5081797;28;19924;-54
2023/04/16 10:50:34;;;;;;;;;;;;;;;11.10;69.47;98075.66;5093161;28;19928;-54
2023/04/16 10:53:18;;;;;;;;;;;;;;;11.08;68.84;98077.84;5078376;28;20353;-55
2023/04/16 10:56:14;;;;;;;;;;;;;;;11.09;69.41;98082.19;5085416;28;19924;-55
2023/04/16 10:58:43;;;;;;;;;;;;;;;11.04;69.73;98088.56;5061130;28;19924;-55
2023/04/16 11:01:12;;;;;;;;;;;;;;;11.03;70.33;98092.41;5083730;28;19924;-54
2023/04/16 11:03:43;;;;;;;;;;;;;;;11.09;69.42;98082.19;5084761;28;19924;-54
2023/04/16 11:06:15;;;;;;;;;;;;;;;11.14;69.83;98084.78;5072675;28;19928;-55
2023/04/16 11:08:44;;;;;;;;;;;;;;;11.18;70.33;98088.47;5093848;28;19956;-54
2023/04/16 11:11:21;;;;;;;;;;;;;;;11.22;70.69;98098.44;5081007;28;19928;-54
2023/04/16 11:13:50;;;;;;;;;;;;;;;11.38;68.58;98093.41;5086252;28;19928;-54
2023/04/16 11:16:19;;;;;;;;;;;;;;;11.32;68.13;98094.66;5077333;28;19925;-54
2023/04/16 11:18:47;;;;;;;;;;;;;;;11.35;68.39;98093.25;5086299;28;19924;-58
2023/04/16 11:21:18;;;;;;;;;;;;;;;11.36;69.55;98095.63;5091870;28;19928;-54
2023/04/16 11:23:47;;;;;;;;;;;;;;;11.53;69.68;98087.56;5092076;28;19931;-54
2023/04/16 11:26:25;;;;;;;;;;;;;;;11.61;70.25;98096.91;5089260;28;19924;-54
2023/04/16 11:28:56;;;;;;;;;;;;;;;11.75;69.72;98096.78;5092731;28;19924;-54
2023/04/16 11:31:25;;;;;;;;;;;;;;;11.77;67.07;98094.53;5088721;28;19928;-54
2023/04/16 11:33:55;;;;;;;;;;;;;;;11.77;66.51;98100.81;5094281;28;19924;-55
2023/04/16 11:36:23;;;;;;;;;;;;;;;11.83;67.23;98104.22;5089527;28;19928;-54
2023/04/16 11:39:00;;;;;;;;;;;;;;;11.76;66.59;98095.66;5104954;28;19931;-54
2023/04/16 11:41:28;;;;;;;;;;;;;;;11.72;63.71;98100.16;5082664;28;20350;-55
2023/04/16 11:43:58;;;;;;;;;;;;;;;11.74;63.89;98100.63;5073000;28;19925;-54
2023/04/16 11:46:37;;;;;;;;;;;;;;;11.80;63.44;98096.63;5090223;28;20361;-55
2023/04/16 11:49:05;;;;;;;;;;;;;;;11.73;62.05;98104.47;5090524;28;19923;-54
2023/04/16 11:51:39;;;;;;;;;;;;;;;11.80;64.30;98100.16;5093200;28;19927;-59
2023/04/16 11:54:07;;;;;;;;;;;;;;;11.72;64.21;98106.38;5091055;28;19928;-54
2023/04/16 11:56:38;;;;;;;;;;;;;;;11.79;64.46;98106.72;5083100;28;19928;-55
2023/04/16 11:59:08;;;;;;;;;;;;;;;11.73;65.17;98104.47;5086471;28;19979;-58
2023/04/16 12:01:37;;;;;;;;;;;;;;;11.69;66.16;98104.28;5068278;28;20015;-54
2023/04/16 12:04:05;;;;;;;;;;;;;;;11.55;68.25;98112.53;5084053;28;19924;-55
2023/04/16 12:06:33;;;;;;;;;;;;;;;11.38;68.77;98112.44;5087232;28;19924;-54
2023/04/16 12:09:21;;;;;;;;;;;;;;;11.26;68.81;98112.22;5066997;28;20015;-55
2023/04/16 12:11:49;;;;;;;;;;;;;;;11.33;69.52;98111.78;5087596;28;19929;-55
2023/04/16 12:14:19;;;;;;;;;;;;;;;11.44;69.29;98108.47;5090472;28;19928;-54
2023/04/16 12:16:47;;;;;;;;;;;;;;;11.59;68.68;98109.19;5079438;28;19924;-57
2023/04/16 12:19:15;;;;;;;;;;;;;;;11.66;67.74;98112.25;5093792;28;19979;-57
2023/04/16 12:21:43;;;;;;;;;;;;;;;11.61;66.98;98113.22;5087991;28;20373;-55
2023/04/16 12:24:12;;;;;;;;;;;;;;;11.62;66.00;98111.31;5088787;28;19927;-55
2023/04/16 12:26:41;;;;;;;;;;;;;;;11.69;66.75;98117.09;5093583;28;20304;-55
2023/04/16 12:29:15;;;;;;;;;;;;;;;11.72;66.39;98119.19;5090858;28;19924;-54
2023/04/16 12:31:45;;;;;;;;;;;;;;;11.69;65.91;98122.53;5077443;28;19925;-54
2023/04/16 12:34:14;;;;;;;;;;;;;;;11.64;66.52;98119.94;5082891;28;19931;-54
2023/04/16 12:36:42;;;;;;;;;;;;;;;11.52;66.04;98125.97;5073680;28;20376;-54
2023/04/16 12:39:12;;;;;;;;;;;;;;;11.47;65.85;98117.94;5094990;28;19928;-54
2023/04/16 12:41:40;;;;;;;;;;;;;;;11.45;65.87;98123.69;5093905;28;19928;-55
2023/04/16 12:44:10;;;;;;;;;;;;;;;11.38;65.43;98122.53;5090091;28;19958;-54
2023/04/16 12:46:39;;;;;;;;;;;;;;;11.34;66.00;98140.56;5083093;28;19931;-54
2023/04/16 12:49:09;;;;;;;;;;;;;;;11.43;66.20;98123.19;5089727;28;19929;-54
2023/04/16 12:51:37;;;;;;;;;;;;;;;11.47;67.30;98129.63;5090839;28;19924;-55
2023/04/16 12:54:06;;;;;;;;;;;;;;;11.42;67.71;98140.63;5063381;28;19979;-54
2023/04/16 12:56:35;;;;;;;;;;;;;;;11.29;67.32;98138.78;5058048;28;19932;-54
2023/04/16 12:59:03;;;;;;;;;;;;;;;11.28;67.18;98137.19;5072229;28;19924;-55
2023/04/16 13:01:34;;;;;;;;;;;;;;;11.36;66.97;98139.16;5079568;28;19928;-55
2023/04/16 13:04:03;;;;;;;;;;;;;;;11.40;66.71;98123.84;5084194;28;19924;-54